sensor_id;sensor_type;location;lat;lon;timestamp;temperature;humidity
4759;DHT22;2393;50.560;12.636;2023-10-19T00:00:56;8.10;99.90
4759;DHT22;2393;50.560;12.636;2023-10-19T00:03:26;8.10;99.90
4759;DHT22;2393;50.560;12.636;2023-10-19T00:05:56;8.10;99.90
4759;DHT22;2393;50.560;12.636;2023-10-19T00:08:25;8.20;99.90
4759;DHT22;2393;50.560;12.636;2023-10-19T00:10:53;8.10;99.90
4759;DHT22;2393;50.560;12.636;2023-10-19T00:13:30;8.10;99.90
4759;DHT22;2393;50.560;12.636;2023-10-19T00:15:57;8.00;99.90
4759;DHT22;2393;50.560;12.636;2023-10-19T00:18:27;7.90;99.90
4759;DHT22;2393;50.560;12.636;2023-10-19T00:20:54;7.80;99.90
4759;DHT22;2393;50.560;12.636;2023-10-19T00:23:26;7.80;99.90
4759;DHT22;2393;50.560;12.636;2023-10-19T00:25:59;7.80;99.90
4759;DHT22;2393;50.560;12.636;2023-10-19T00:28:32;7.90;99.90
4759;DHT22;2393;50.560;12.636;2023-10-19T00:31:02;8.00;99.90
4759;DHT22;2393;50.560;12.636;2023-10-19T00:33:37;8.00;99.90
4759;DHT22;2393;50.560;12.636;2023-10-19T00:36:07;8.10;99.90
4759;DHT22;2393;50.560;12.636;2023-10-19T00:38:37;8.20;99.90
4759;DHT22;2393;50.560;12.636;2023-10-19T00:41:16;8.20;99.90
4759;DHT22;2393;50.560;12.636;2023-10-19T00:43:48;8.20;99.90
4759;DHT22;2393;50.560;12.636;2023-10-19T00:46:24;8.10;99.90
4759;DHT22;2393;50.560;12.636;2023-10-19T00:49:01;8.10;99.90
4759;DHT22;2393;50.560;12.636;2023-10-19T00:51:36;8.10;99.90
4759;DHT22;2393;50.560;12.636;2023-10-19T00:54:21;8.10;99.90
4759;DHT22;2393;50.560;12.636;2023-10-19T00:56:54;8.00;99.90
4759;DHT22;2393;50.560;12.636;2023-10-19T00:59:26;8.10;99.90
4759;DHT22;2393;50.560;12.636;2023-10-19T01:02:00;8.10;99.90
4759;DHT22;2393;50.560;12.636;2023-10-19T01:04:46;8.10;99.90
4759;DHT22;2393;50.560;12.636;2023-10-19T01:07:18;8.10;99.90
4759;DHT22;2393;50.560;12.636;2023-10-19T01:09:50;8.10;99.90
4759;DHT22;2393;50.560;12.636;2023-10-19T01:12:22;8.10;99.90
4759;DHT22;2393;50.560;12.636;2023-10-19T01:15:04;8.00;99.90
4759;DHT22;2393;50.560;12.636;2023-10-19T01:17:36;8.10;99.90
4759;DHT22;2393;50.560;12.636;2023-10-19T01:20:10;8.00;99.90
4759;DHT22;2393;50.560;12.636;2023-10-19T01:22:54;8.10;99.90
4759;DHT22;2393;50.560;12.636;2023-10-19T01:25:42;8.10;99.90
4759;DHT22;2393;50.560;12.636;2023-10-19T01:28:13;8.10;99.90
4759;DHT22;2393;50.560;12.636;2023-10-19T01:30:44;8.10;99.90
4759;DHT22;2393;50.560;12.636;2023-10-19T01:33:12;8.10;99.90
4759;DHT22;2393;50.560;12.636;2023-10-19T01:35:43;8.10;99.90
4759;DHT22;2393;50.560;12.636;2023-10-19T01:38:32;8.20;99.90
4759;DHT22;2393;50.560;12.636;2023-10-19T01:41:02;8.20;99.90
4759;DHT22;2393;50.560;12.636;2023-10-19T01:43:33;8.20;99.90
4759;DHT22;2393;50.560;12.636;2023-10-19T01:46:03;8.20;99.90
4759;DHT22;2393;50.560;12.636;2023-10-19T01:48:32;8.30;99.90
4759;DHT22;2393;50.560;12.636;2023-10-19T01:51:05;8.30;99.90
4759;DHT22;2393;50.560;12.636;2023-10-19T01:53:34;8.40;99.90
4759;DHT22;2393;50.560;12.636;2023-10-19T01:56:03;8.40;99.90
4759;DHT22;2393;50.560;12.636;2023-10-19T01:58:32;8.40;99.90
4759;DHT22;2393;50.560;12.636;2023-10-19T02:01:03;8.40;99.90
4759;DHT22;2393;50.560;12.636;2023-10-19T02:03:35;8.50;99.90
4759;DHT22;2393;50.560;12.636;2023-10-19T02:06:04;8.50;99.90
4759;DHT22;2393;50.560;12.636;2023-10-19T02:08:38;8.60;99.90
4759;DHT22;2393;50.560;12.636;2023-10-19T02:11:07;8.60;99.90
4759;DHT22;2393;50.560;12.636;2023-10-19T02:13:45;8.60;99.90
4759;DHT22;2393;50.560;12.636;2023-10-19T02:16:14;8.70;99.90
4759;DHT22;2393;50.560;12.636;2023-10-19T02:18:43;8.70;99.90
4759;DHT22;2393;50.560;12.636;2023-10-19T02:21:11;8.70;99.90
4759;DHT22;2393;50.560;12.636;2023-10-19T02:23:41;8.70;99.90
4759;DHT22;2393;50.560;12.636;2023-10-19T02:26:10;8.70;99.90
4759;DHT22;2393;50.560;12.636;2023-10-19T02:28:40;8.80;99.90
4759;DHT22;2393;50.560;12.636;2023-10-19T02:31:11;8.80;99.90
4759;DHT22;2393;50.560;12.636;2023-10-19T02:33:42;8.80;99.90
4759;DHT22;2393;50.560;12.636;2023-10-19T02:36:13;8.90;99.90
4759;DHT22;2393;50.560;12.636;2023-10-19T02:38:44;8.90;99.90
4759;DHT22;2393;50.560;12.636;2023-10-19T02:41:15;8.90;99.90
4759;DHT22;2393;50.560;12.636;2023-10-19T02:43:43;9.00;99.90
4759;DHT22;2393;50.560;12.636;2023-10-19T02:46:13;9.00;99.90
4759;DHT22;2393;50.560;12.636;2023-10-19T02:48:40;9.00;99.90
4759;DHT22;2393;50.560;12.636;2023-10-19T02:51:12;9.00;99.90
4759;DHT22;2393;50.560;12.636;2023-10-19T02:53:39;9.00;99.90
4759;DHT22;2393;50.560;12.636;2023-10-19T02:56:14;9.10;99.90
4759;DHT22;2393;50.560;12.636;2023-10-19T02:58:44;9.10;99.90
4759;DHT22;2393;50.560;12.636;2023-10-19T03:01:18;9.10;99.90
4759;DHT22;2393;50.560;12.636;2023-10-19T03:03:50;9.10;99.90
4759;DHT22;2393;50.560;12.636;2023-10-19T03:06:21;9.20;99.90
4759;DHT22;2393;50.560;12.636;2023-10-19T03:08:49;9.20;99.90
4759;DHT22;2393;50.560;12.636;2023-10-19T03:11:26;9.30;99.90
4759;DHT22;2393;50.560;12.636;2023-10-19T03:13:54;9.30;99.90
4759;DHT22;2393;50.560;12.636;2023-10-19T03:16:24;9.40;99.90
4759;DHT22;2393;50.560;12.636;2023-10-19T03:18:51;9.40;99.90
4759;DHT22;2393;50.560;12.636;2023-10-19T03:21:22;9.40;99.90
4759;DHT22;2393;50.560;12.636;2023-10-19T03:23:53;9.50;99.90
4759;DHT22;2393;50.560;12.636;2023-10-19T03:26:23;9.50;99.90
4759;DHT22;2393;50.560;12.636;2023-10-19T03:28:59;9.60;99.90
4759;DHT22;2393;50.560;12.636;2023-10-19T03:31:34;9.60;99.90
4759;DHT22;2393;50.560;12.636;2023-10-19T03:34:10;9.60;99.90
4759;DHT22;2393;50.560;12.636;2023-10-19T03:36:40;9.70;99.90
4759;DHT22;2393;50.560;12.636;2023-10-19T03:39:16;9.70;99.90
4759;DHT22;2393;50.560;12.636;2023-10-19T03:41:47;9.60;99.90
4759;DHT22;2393;50.560;12.636;2023-10-19T03:44:19;9.60;99.90
4759;DHT22;2393;50.560;12.636;2023-10-19T03:46:51;9.60;99.90
4759;DHT22;2393;50.560;12.636;2023-10-19T03:49:25;9.50;99.90
4759;DHT22;2393;50.560;12.636;2023-10-19T03:52:05;9.50;99.90
4759;DHT22;2393;50.560;12.636;2023-10-19T03:54:58;9.50;99.90
4759;DHT22;2393;50.560;12.636;2023-10-19T03:57:27;9.40;99.90
4759;DHT22;2393;50.560;12.636;2023-10-19T03:59:57;9.40;99.90
4759;DHT22;2393;50.560;12.636;2023-10-19T04:02:26;9.40;99.90
4759;DHT22;2393;50.560;12.636;2023-10-19T04:04:56;9.40;99.90
4759;DHT22;2393;50.560;12.636;2023-10-19T04:07:25;9.40;99.90
4759;DHT22;2393;50.560;12.636;2023-10-19T04:09:55;9.40;99.90
4759;DHT22;2393;50.560;12.636;2023-10-19T04:12:39;9.40;99.90
4759;DHT22;2393;50.560;12.636;2023-10-19T04:15:10;9.30;99.90
4759;DHT22;2393;50.560;12.636;2023-10-19T04:17:41;9.40;99.90
4759;DHT22;2393;50.560;12.636;2023-10-19T04:20:11;9.40;99.90
4759;DHT22;2393;50.560;12.636;2023-10-19T04:22:55;9.40;99.90
4759;DHT22;2393;50.560;12.636;2023-10-19T04:25:25;9.30;99.90
4759;DHT22;2393;50.560;12.636;2023-10-19T04:27:55;9.30;99.90
4759;DHT22;2393;50.560;12.636;2023-10-19T04:30:24;9.30;99.90
4759;DHT22;2393;50.560;12.636;2023-10-19T04:32:53;9.30;99.90
4759;DHT22;2393;50.560;12.636;2023-10-19T04:35:24;9.20;99.90
4759;DHT22;2393;50.560;12.636;2023-10-19T04:37:57;9.20;99.90
4759;DHT22;2393;50.560;12.636;2023-10-19T04:40:27;9.20;99.90
4759;DHT22;2393;50.560;12.636;2023-10-19T04:42:56;9.10;99.90
4759;DHT22;2393;50.560;12.636;2023-10-19T04:45:27;9.10;99.90
4759;DHT22;2393;50.560;12.636;2023-10-19T04:47:56;9.10;99.90
4759;DHT22;2393;50.560;12.636;2023-10-19T04:50:25;9.10;99.90
4759;DHT22;2393;50.560;12.636;2023-10-19T04:52:53;9.10;99.90
4759;DHT22;2393;50.560;12.636;2023-10-19T04:55:21;9.10;99.90
4759;DHT22;2393;50.560;12.636;2023-10-19T04:57:50;9.00;99.90
4759;DHT22;2393;50.560;12.636;2023-10-19T05:00:19;9.00;99.90
4759;DHT22;2393;50.560;12.636;2023-10-19T05:02:48;8.90;99.90
4759;DHT22;2393;50.560;12.636;2023-10-19T05:05:19;8.90;99.90
4759;DHT22;2393;50.560;12.636;2023-10-19T05:07:47;8.90;99.90
4759;DHT22;2393;50.560;12.636;2023-10-19T05:10:16;8.90;99.90
4759;DHT22;2393;50.560;12.636;2023-10-19T05:12:47;8.90;99.90
4759;DHT22;2393;50.560;12.636;2023-10-19T05:15:15;8.90;99.90
4759;DHT22;2393;50.560;12.636;2023-10-19T05:17:46;9.00;99.90
4759;DHT22;2393;50.560;12.636;2023-10-19T05:20:14;9.00;99.90
4759;DHT22;2393;50.560;12.636;2023-10-19T05:22:43;9.00;99.90
4759;DHT22;2393;50.560;12.636;2023-10-19T05:25:11;9.00;99.90
4759;DHT22;2393;50.560;12.636;2023-10-19T05:27:39;9.10;99.90
4759;DHT22;2393;50.560;12.636;2023-10-19T05:30:10;9.10;99.90
4759;DHT22;2393;50.560;12.636;2023-10-19T05:32:38;9.10;99.90
4759;DHT22;2393;50.560;12.636;2023-10-19T05:35:08;9.20;99.90
4759;DHT22;2393;50.560;12.636;2023-10-19T05:37:40;9.20;99.90
4759;DHT22;2393;50.560;12.636;2023-10-19T05:40:09;9.30;99.90
4759;DHT22;2393;50.560;12.636;2023-10-19T05:42:41;9.30;99.90
4759;DHT22;2393;50.560;12.636;2023-10-19T05:45:10;9.30;99.90
4759;DHT22;2393;50.560;12.636;2023-10-19T05:47:40;9.30;99.90
4759;DHT22;2393;50.560;12.636;2023-10-19T05:50:10;9.40;99.90
4759;DHT22;2393;50.560;12.636;2023-10-19T05:52:41;9.40;99.90
4759;DHT22;2393;50.560;12.636;2023-10-19T05:55:10;9.40;99.90
4759;DHT22;2393;50.560;12.636;2023-10-19T05:57:39;9.40;99.90
4759;DHT22;2393;50.560;12.636;2023-10-19T06:00:09;9.40;99.90
4759;DHT22;2393;50.560;12.636;2023-10-19T06:02:43;9.40;99.90
4759;DHT22;2393;50.560;12.636;2023-10-19T06:05:14;9.50;99.90
4759;DHT22;2393;50.560;12.636;2023-10-19T06:07:44;9.50;99.90
4759;DHT22;2393;50.560;12.636;2023-10-19T06:10:14;9.50;99.90
4759;DHT22;2393;50.560;12.636;2023-10-19T06:12:44;9.50;99.90
4759;DHT22;2393;50.560;12.636;2023-10-19T06:15:14;9.50;99.90
4759;DHT22;2393;50.560;12.636;2023-10-19T06:17:42;9.60;99.90
4759;DHT22;2393;50.560;12.636;2023-10-19T06:20:14;9.60;99.90
4759;DHT22;2393;50.560;12.636;2023-10-19T06:22:52;9.60;99.90
4759;DHT22;2393;50.560;12.636;2023-10-19T06:25:22;9.60;99.90
4759;DHT22;2393;50.560;12.636;2023-10-19T06:27:52;9.60;99.90
4759;DHT22;2393;50.560;12.636;2023-10-19T06:30:20;9.60;99.90
4759;DHT22;2393;50.560;12.636;2023-10-19T06:32:52;9.70;99.90
4759;DHT22;2393;50.560;12.636;2023-10-19T06:35:23;9.70;99.90
4759;DHT22;2393;50.560;12.636;2023-10-19T06:37:53;9.70;99.90
4759;DHT22;2393;50.560;12.636;2023-10-19T06:40:22;9.70;99.90
4759;DHT22;2393;50.560;12.636;2023-10-19T06:42:50;9.70;99.90
4759;DHT22;2393;50.560;12.636;2023-10-19T06:45:18;9.70;99.90
4759;DHT22;2393;50.560;12.636;2023-10-19T06:47:47;9.70;99.90
4759;DHT22;2393;50.560;12.636;2023-10-19T06:50:18;9.80;99.90
4759;DHT22;2393;50.560;12.636;2023-10-19T06:52:48;9.80;99.90
4759;DHT22;2393;50.560;12.636;2023-10-19T06:55:18;9.90;99.90
4759;DHT22;2393;50.560;12.636;2023-10-19T06:57:48;9.90;99.90
4759;DHT22;2393;50.560;12.636;2023-10-19T07:00:18;9.90;99.90
4759;DHT22;2393;50.560;12.636;2023-10-19T07:02:47;10.00;99.90
4759;DHT22;2393;50.560;12.636;2023-10-19T07:05:16;10.10;99.90
4759;DHT22;2393;50.560;12.636;2023-10-19T07:07:51;10.10;99.90
4759;DHT22;2393;50.560;12.636;2023-10-19T07:10:22;10.10;99.90
4759;DHT22;2393;50.560;12.636;2023-10-19T07:12:52;10.20;99.90
4759;DHT22;2393;50.560;12.636;2023-10-19T07:15:20;10.20;99.90
4759;DHT22;2393;50.560;12.636;2023-10-19T07:17:51;10.20;99.90
4759;DHT22;2393;50.560;12.636;2023-10-19T07:20:22;10.30;99.90
4759;DHT22;2393;50.560;12.636;2023-10-19T07:22:55;10.30;99.90
4759;DHT22;2393;50.560;12.636;2023-10-19T07:25:23;10.30;99.90
4759;DHT22;2393;50.560;12.636;2023-10-19T07:27:53;10.30;99.90
4759;DHT22;2393;50.560;12.636;2023-10-19T07:30:22;10.30;99.90
4759;DHT22;2393;50.560;12.636;2023-10-19T07:32:53;10.30;99.90
4759;DHT22;2393;50.560;12.636;2023-10-19T07:35:26;10.40;99.90
4759;DHT22;2393;50.560;12.636;2023-10-19T07:37:55;10.30;99.90
4759;DHT22;2393;50.560;12.636;2023-10-19T07:40:24;10.40;99.90
4759;DHT22;2393;50.560;12.636;2023-10-19T07:42:52;10.40;99.90
4759;DHT22;2393;50.560;12.636;2023-10-19T07:45:21;10.50;99.90
4759;DHT22;2393;50.560;12.636;2023-10-19T07:47:50;10.50;99.90
4759;DHT22;2393;50.560;12.636;2023-10-19T07:50:18;10.60;99.90
4759;DHT22;2393;50.560;12.636;2023-10-19T07:52:51;10.70;99.90
4759;DHT22;2393;50.560;12.636;2023-10-19T07:55:22;10.70;99.90
4759;DHT22;2393;50.560;12.636;2023-10-19T07:57:51;10.80;99.90
4759;DHT22;2393;50.560;12.636;2023-10-19T08:00:20;10.90;99.90
4759;DHT22;2393;50.560;12.636;2023-10-19T08:02:51;10.90;99.90
4759;DHT22;2393;50.560;12.636;2023-10-19T08:05:20;11.00;99.90
4759;DHT22;2393;50.560;12.636;2023-10-19T08:07:48;11.10;99.90
4759;DHT22;2393;50.560;12.636;2023-10-19T08:10:19;11.10;99.90
4759;DHT22;2393;50.560;12.636;2023-10-19T08:12:50;11.30;99.90
4759;DHT22;2393;50.560;12.636;2023-10-19T08:15:19;11.40;99.90
4759;DHT22;2393;50.560;12.636;2023-10-19T08:17:49;11.50;99.90
4759;DHT22;2393;50.560;12.636;2023-10-19T08:20:18;11.60;99.90
4759;DHT22;2393;50.560;12.636;2023-10-19T08:22:52;11.60;99.90
4759;DHT22;2393;50.560;12.636;2023-10-19T08:25:24;11.80;99.90
4759;DHT22;2393;50.560;12.636;2023-10-19T08:28:04;11.80;99.90
4759;DHT22;2393;50.560;12.636;2023-10-19T08:30:33;11.90;99.90
4759;DHT22;2393;50.560;12.636;2023-10-19T08:33:01;11.90;99.90
4759;DHT22;2393;50.560;12.636;2023-10-19T08:35:29;11.90;99.90
4759;DHT22;2393;50.560;12.636;2023-10-19T08:37:58;12.00;99.90
4759;DHT22;2393;50.560;12.636;2023-10-19T08:40:26;11.90;99.90
4759;DHT22;2393;50.560;12.636;2023-10-19T08:42:55;12.00;99.90
4759;DHT22;2393;50.560;12.636;2023-10-19T08:45:25;11.90;99.90
4759;DHT22;2393;50.560;12.636;2023-10-19T08:47:55;12.00;99.90
4759;DHT22;2393;50.560;12.636;2023-10-19T08:50:24;12.00;99.90
4759;DHT22;2393;50.560;12.636;2023-10-19T08:52:54;12.00;99.90
4759;DHT22;2393;50.560;12.636;2023-10-19T08:55:23;11.90;99.90
4759;DHT22;2393;50.560;12.636;2023-10-19T08:58:11;12.00;99.90
4759;DHT22;2393;50.560;12.636;2023-10-19T09:00:45;11.90;99.90
4759;DHT22;2393;50.560;12.636;2023-10-19T09:03:16;11.90;99.90
4759;DHT22;2393;50.560;12.636;2023-10-19T09:05:45;11.90;99.90
4759;DHT22;2393;50.560;12.636;2023-10-19T09:08:18;11.90;99.90
4759;DHT22;2393;50.560;12.636;2023-10-19T09:10:50;11.90;99.90
4759;DHT22;2393;50.560;12.636;2023-10-19T09:13:20;11.90;99.90
4759;DHT22;2393;50.560;12.636;2023-10-19T09:15:51;12.00;99.90
4759;DHT22;2393;50.560;12.636;2023-10-19T09:18:24;12.00;99.90
4759;DHT22;2393;50.560;12.636;2023-10-19T09:20:56;12.00;99.90
4759;DHT22;2393;50.560;12.636;2023-10-19T09:23:35;12.20;99.90
4759;DHT22;2393;50.560;12.636;2023-10-19T09:26:04;12.30;99.90
4759;DHT22;2393;50.560;12.636;2023-10-19T09:28:35;12.30;99.90
4759;DHT22;2393;50.560;12.636;2023-10-19T09:31:06;12.40;99.90
4759;DHT22;2393;50.560;12.636;2023-10-19T09:33:40;12.50;99.90
4759;DHT22;2393;50.560;12.636;2023-10-19T09:36:10;12.60;99.90
4759;DHT22;2393;50.560;12.636;2023-10-19T09:38:44;12.60;99.90
4759;DHT22;2393;50.560;12.636;2023-10-19T09:41:17;12.70;99.90
4759;DHT22;2393;50.560;12.636;2023-10-19T09:43:47;12.70;99.90
4759;DHT22;2393;50.560;12.636;2023-10-19T09:46:21;12.80;99.90
4759;DHT22;2393;50.560;12.636;2023-10-19T09:48:50;12.90;99.90
4759;DHT22;2393;50.560;12.636;2023-10-19T09:51:20;13.00;99.90
4759;DHT22;2393;50.560;12.636;2023-10-19T09:53:53;13.00;99.90
4759;DHT22;2393;50.560;12.636;2023-10-19T09:56:28;13.10;99.90
4759;DHT22;2393;50.560;12.636;2023-10-19T09:59:04;13.10;99.90
4759;DHT22;2393;50.560;12.636;2023-10-19T10:02:06;13.20;99.90
4759;DHT22;2393;50.560;12.636;2023-10-19T10:04:35;13.20;99.90
4759;DHT22;2393;50.560;12.636;2023-10-19T10:07:05;13.30;99.90
4759;DHT22;2393;50.560;12.636;2023-10-19T10:09:35;13.40;99.90
4759;DHT22;2393;50.560;12.636;2023-10-19T10:12:16;13.40;99.90
4759;DHT22;2393;50.560;12.636;2023-10-19T10:14:56;13.40;99.90
4759;DHT22;2393;50.560;12.636;2023-10-19T10:17:27;13.40;99.90
4759;DHT22;2393;50.560;12.636;2023-10-19T10:20:28;13.50;99.90
4759;DHT22;2393;50.560;12.636;2023-10-19T10:23:17;13.60;99.90
4759;DHT22;2393;50.560;12.636;2023-10-19T10:25:49;13.70;99.90
4759;DHT22;2393;50.560;12.636;2023-10-19T10:28:21;13.80;99.90
4759;DHT22;2393;50.560;12.636;2023-10-19T10:31:10;13.90;99.90
4759;DHT22;2393;50.560;12.636;2023-10-19T10:33:43;14.00;99.90
4759;DHT22;2393;50.560;12.636;2023-10-19T10:36:16;14.10;99.90
4759;DHT22;2393;50.560;12.636;2023-10-19T10:38:45;14.20;99.90
4759;DHT22;2393;50.560;12.636;2023-10-19T10:41:20;14.30;99.90
4759;DHT22;2393;50.560;12.636;2023-10-19T10:43:52;14.40;99.90
4759;DHT22;2393;50.560;12.636;2023-10-19T10:46:21;14.50;99.90
4759;DHT22;2393;50.560;12.636;2023-10-19T10:48:51;14.60;99.90
4759;DHT22;2393;50.560;12.636;2023-10-19T10:51:21;14.70;99.90
4759;DHT22;2393;50.560;12.636;2023-10-19T10:53:50;14.70;99.90
4759;DHT22;2393;50.560;12.636;2023-10-19T10:56:20;14.80;99.90
4759;DHT22;2393;50.560;12.636;2023-10-19T10:58:49;15.00;99.90
4759;DHT22;2393;50.560;12.636;2023-10-19T11:01:28;15.10;99.90
4759;DHT22;2393;50.560;12.636;2023-10-19T11:04:08;15.30;99.90
4759;DHT22;2393;50.560;12.636;2023-10-19T11:06:50;15.40;99.90
4759;DHT22;2393;50.560;12.636;2023-10-19T11:09:18;15.50;99.90
4759;DHT22;2393;50.560;12.636;2023-10-19T11:11:49;15.60;99.90
4759;DHT22;2393;50.560;12.636;2023-10-19T11:14:19;15.80;99.90
4759;DHT22;2393;50.560;12.636;2023-10-19T11:16:49;15.90;99.90
4759;DHT22;2393;50.560;12.636;2023-10-19T11:19:18;16.00;99.90
4759;DHT22;2393;50.560;12.636;2023-10-19T11:21:54;15.90;99.90
4759;DHT22;2393;50.560;12.636;2023-10-19T11:24:27;15.90;99.90
4759;DHT22;2393;50.560;12.636;2023-10-19T11:27:00;16.10;99.90
4759;DHT22;2393;50.560;12.636;2023-10-19T11:29:29;16.40;99.90
4759;DHT22;2393;50.560;12.636;2023-10-19T11:31:57;16.50;99.90
4759;DHT22;2393;50.560;12.636;2023-10-19T11:34:28;16.60;99.90
4759;DHT22;2393;50.560;12.636;2023-10-19T11:36:58;16.50;99.90
4759;DHT22;2393;50.560;12.636;2023-10-19T11:39:27;16.50;99.90
4759;DHT22;2393;50.560;12.636;2023-10-19T11:41:55;16.40;99.90
4759;DHT22;2393;50.560;12.636;2023-10-19T11:44:24;16.30;99.90
4759;DHT22;2393;50.560;12.636;2023-10-19T11:46:52;16.30;99.90
4759;DHT22;2393;50.560;12.636;2023-10-19T11:49:20;16.30;99.90
4759;DHT22;2393;50.560;12.636;2023-10-19T11:51:54;16.30;99.90
4759;DHT22;2393;50.560;12.636;2023-10-19T11:54:22;16.20;99.90
4759;DHT22;2393;50.560;12.636;2023-10-19T11:56:50;16.20;99.90
4759;DHT22;2393;50.560;12.636;2023-10-19T11:59:20;16.30;99.90
4759;DHT22;2393;50.560;12.636;2023-10-19T12:01:49;16.30;99.90
4759;DHT22;2393;50.560;12.636;2023-10-19T12:04:17;16.40;99.90
4759;DHT22;2393;50.560;12.636;2023-10-19T12:06:46;16.40;99.90
4759;DHT22;2393;50.560;12.636;2023-10-19T12:09:16;16.30;99.90
4759;DHT22;2393;50.560;12.636;2023-10-19T12:11:44;16.30;99.90
4759;DHT22;2393;50.560;12.636;2023-10-19T12:14:16;16.20;99.90
4759;DHT22;2393;50.560;12.636;2023-10-19T12:16:44;16.30;99.90
4759;DHT22;2393;50.560;12.636;2023-10-19T12:19:13;16.30;99.90
4759;DHT22;2393;50.560;12.636;2023-10-19T12:21:43;16.50;99.90
4759;DHT22;2393;50.560;12.636;2023-10-19T12:24:11;16.70;99.90
4759;DHT22;2393;50.560;12.636;2023-10-19T12:26:41;16.90;99.90
4759;DHT22;2393;50.560;12.636;2023-10-19T12:29:09;16.90;99.90
4759;DHT22;2393;50.560;12.636;2023-10-19T12:31:38;16.90;99.90
4759;DHT22;2393;50.560;12.636;2023-10-19T12:34:07;16.90;99.90
4759;DHT22;2393;50.560;12.636;2023-10-19T12:36:38;16.90;99.90
4759;DHT22;2393;50.560;12.636;2023-10-19T12:39:08;16.80;99.90
4759;DHT22;2393;50.560;12.636;2023-10-19T12:41:38;16.80;99.90
4759;DHT22;2393;50.560;12.636;2023-10-19T12:44:07;16.80;99.90
4759;DHT22;2393;50.560;12.636;2023-10-19T12:46:36;16.80;99.90
4759;DHT22;2393;50.560;12.636;2023-10-19T12:49:05;16.80;99.90
4759;DHT22;2393;50.560;12.636;2023-10-19T12:51:36;16.60;99.90
4759;DHT22;2393;50.560;12.636;2023-10-19T12:54:05;16.50;99.90
4759;DHT22;2393;50.560;12.636;2023-10-19T12:56:37;16.40;99.90
4759;DHT22;2393;50.560;12.636;2023-10-19T12:59:07;16.30;99.90
4759;DHT22;2393;50.560;12.636;2023-10-19T13:01:35;16.30;99.90
4759;DHT22;2393;50.560;12.636;2023-10-19T13:04:05;16.50;99.90
4759;DHT22;2393;50.560;12.636;2023-10-19T13:06:41;16.80;99.90
4759;DHT22;2393;50.560;12.636;2023-10-19T13:09:09;17.10;99.90
4759;DHT22;2393;50.560;12.636;2023-10-19T13:11:38;17.20;99.90
4759;DHT22;2393;50.560;12.636;2023-10-19T13:14:12;17.40;99.90
4759;DHT22;2393;50.560;12.636;2023-10-19T13:16:40;17.50;99.90
4759;DHT22;2393;50.560;12.636;2023-10-19T13:19:08;17.60;99.90
4759;DHT22;2393;50.560;12.636;2023-10-19T13:21:40;17.70;99.90
4759;DHT22;2393;50.560;12.636;2023-10-19T13:24:09;17.70;99.90
4759;DHT22;2393;50.560;12.636;2023-10-19T13:26:37;17.70;99.90
4759;DHT22;2393;50.560;12.636;2023-10-19T13:29:09;17.60;99.90
4759;DHT22;2393;50.560;12.636;2023-10-19T13:31:39;17.50;99.90
4759;DHT22;2393;50.560;12.636;2023-10-19T13:34:07;17.50;99.90
4759;DHT22;2393;50.560;12.636;2023-10-19T13:36:37;17.40;99.90
4759;DHT22;2393;50.560;12.636;2023-10-19T13:39:05;17.40;99.90
4759;DHT22;2393;50.560;12.636;2023-10-19T13:41:39;17.40;99.90
4759;DHT22;2393;50.560;12.636;2023-10-19T13:44:08;17.40;99.90
4759;DHT22;2393;50.560;12.636;2023-10-19T13:46:36;17.40;99.90
4759;DHT22;2393;50.560;12.636;2023-10-19T13:49:06;17.40;99.90
4759;DHT22;2393;50.560;12.636;2023-10-19T13:51:36;17.40;99.90
4759;DHT22;2393;50.560;12.636;2023-10-19T13:54:06;17.40;99.90
4759;DHT22;2393;50.560;12.636;2023-10-19T13:56:34;17.40;99.90
4759;DHT22;2393;50.560;12.636;2023-10-19T13:59:02;17.50;99.90
4759;DHT22;2393;50.560;12.636;2023-10-19T14:01:32;17.50;99.90
4759;DHT22;2393;50.560;12.636;2023-10-19T14:04:01;17.50;99.90
4759;DHT22;2393;50.560;12.636;2023-10-19T14:06:30;17.50;99.90
4759;DHT22;2393;50.560;12.636;2023-10-19T14:08:58;17.40;99.90
4759;DHT22;2393;50.560;12.636;2023-10-19T14:11:26;17.30;99.90
4759;DHT22;2393;50.560;12.636;2023-10-19T14:13:54;17.10;99.90
4759;DHT22;2393;50.560;12.636;2023-10-19T14:16:23;17.00;99.90
4759;DHT22;2393;50.560;12.636;2023-10-19T14:18:52;17.00;99.90
4759;DHT22;2393;50.560;12.636;2023-10-19T14:21:20;17.00;99.90
4759;DHT22;2393;50.560;12.636;2023-10-19T14:23:51;16.90;99.90
4759;DHT22;2393;50.560;12.636;2023-10-19T14:26:20;16.90;99.90
4759;DHT22;2393;50.560;12.636;2023-10-19T14:28:49;16.90;99.90
4759;DHT22;2393;50.560;12.636;2023-10-19T14:31:17;16.80;99.90
4759;DHT22;2393;50.560;12.636;2023-10-19T14:33:45;16.80;99.90
4759;DHT22;2393;50.560;12.636;2023-10-19T14:36:14;16.70;99.90
4759;DHT22;2393;50.560;12.636;2023-10-19T14:38:42;16.60;99.90
4759;DHT22;2393;50.560;12.636;2023-10-19T14:41:13;16.60;99.90
4759;DHT22;2393;50.560;12.636;2023-10-19T14:43:42;16.50;99.90
4759;DHT22;2393;50.560;12.636;2023-10-19T14:46:10;16.40;99.90
4759;DHT22;2393;50.560;12.636;2023-10-19T14:48:40;16.30;99.90
4759;DHT22;2393;50.560;12.636;2023-10-19T14:51:08;16.30;99.90
4759;DHT22;2393;50.560;12.636;2023-10-19T14:53:36;16.20;99.90
4759;DHT22;2393;50.560;12.636;2023-10-19T14:56:05;16.10;99.90
4759;DHT22;2393;50.560;12.636;2023-10-19T14:58:36;16.00;99.90
4759;DHT22;2393;50.560;12.636;2023-10-19T15:01:04;15.90;99.90
4759;DHT22;2393;50.560;12.636;2023-10-19T15:03:33;15.70;99.90
4759;DHT22;2393;50.560;12.636;2023-10-19T15:06:04;15.70;99.90
4759;DHT22;2393;50.560;12.636;2023-10-19T15:08:33;15.50;99.90
4759;DHT22;2393;50.560;12.636;2023-10-19T15:11:01;15.40;99.90
4759;DHT22;2393;50.560;12.636;2023-10-19T15:13:29;15.30;99.90
4759;DHT22;2393;50.560;12.636;2023-10-19T15:16:07;15.20;99.90
4759;DHT22;2393;50.560;12.636;2023-10-19T15:18:35;15.20;99.90
4759;DHT22;2393;50.560;12.636;2023-10-19T15:21:07;15.10;99.90
4759;DHT22;2393;50.560;12.636;2023-10-19T15:23:35;15.00;99.90
4759;DHT22;2393;50.560;12.636;2023-10-19T15:26:04;14.90;99.90
4759;DHT22;2393;50.560;12.636;2023-10-19T15:28:32;14.80;99.90
4759;DHT22;2393;50.560;12.636;2023-10-19T15:31:02;14.80;99.90
4759;DHT22;2393;50.560;12.636;2023-10-19T15:33:33;14.70;99.90
4759;DHT22;2393;50.560;12.636;2023-10-19T15:36:01;14.60;99.90
4759;DHT22;2393;50.560;12.636;2023-10-19T15:38:30;14.60;99.90
4759;DHT22;2393;50.560;12.636;2023-10-19T15:40:58;14.50;99.90
4759;DHT22;2393;50.560;12.636;2023-10-19T15:43:26;14.40;99.90
4759;DHT22;2393;50.560;12.636;2023-10-19T15:45:57;14.40;99.90
4759;DHT22;2393;50.560;12.636;2023-10-19T15:48:32;14.30;99.90
4759;DHT22;2393;50.560;12.636;2023-10-19T15:51:01;14.30;99.90
4759;DHT22;2393;50.560;12.636;2023-10-19T15:53:35;14.30;99.90
4759;DHT22;2393;50.560;12.636;2023-10-19T15:56:06;14.20;99.90
4759;DHT22;2393;50.560;12.636;2023-10-19T15:58:34;14.20;99.90
4759;DHT22;2393;50.560;12.636;2023-10-19T16:01:06;14.20;99.90
4759;DHT22;2393;50.560;12.636;2023-10-19T16:03:37;14.10;99.90
4759;DHT22;2393;50.560;12.636;2023-10-19T16:06:06;14.10;99.90
4759;DHT22;2393;50.560;12.636;2023-10-19T16:08:37;14.10;99.90
4759;DHT22;2393;50.560;12.636;2023-10-19T16:11:09;14.00;99.90
4759;DHT22;2393;50.560;12.636;2023-10-19T16:13:38;14.00;99.90
4759;DHT22;2393;50.560;12.636;2023-10-19T16:16:09;14.00;99.90